FK-0029 weather

Beaver Island Airport
Beaver Island, Falkland Islands

Public forecast

Using degrees Celsius for public forecast. Weather courtesy of forecast.io.

METAR (pilot weather report)

Closest report is Mount Pleasant Airport, 103.4 nm (191.5 km) E. Retrieved 2019/09/17 18:36 UTC (0 seconds ago):

EGYP 171836Z 20015KT 9999 BKN006 OVC016 04/03 Q0994 RMK YLO1

TAF (pilot weather forecast)

Closest forecast is Mount Pleasant Airport, 103.4 nm (191.5 km) E. Retrieved 2019/09/17 18:46 UTC (0 seconds ago):

TAF EGYP 171642Z 1718/1812 23012KT 9999 SCT025 TEMPO 1718/1806 7000 -SHRASN BKN012 PROB40 TEMPO 1718/1804 21015G25KT 3000 SHRASN BKN004 PROB30 1804/1811 0500 FG BKN000 PROB40 TEMPO 1810/1812 4000 -SHRASN SCT014 BKN020